sensor_id;sensor_type;location;lat;lon;timestamp;pressure;altitude;pressure_sealevel;temperature;humidity
34328;BME280;20588;48.840;10.064;2023-02-28T00:00:47;97096.69;;;-1.52;nan
34328;BME280;20588;48.840;10.064;2023-02-28T00:03:13;97091.47;;;-1.40;nan
34328;BME280;20588;48.840;10.064;2023-02-28T00:05:39;97095.94;;;-1.43;nan
34328;BME280;20588;48.840;10.064;2023-02-28T00:08:05;97090.91;;;-1.43;nan
34328;BME280;20588;48.840;10.064;2023-02-28T00:10:32;97090.91;;;-1.43;nan
34328;BME280;20588;48.840;10.064;2023-02-28T00:13:03;97095.03;;;-1.42;nan
34328;BME280;20588;48.840;10.064;2023-02-28T00:15:30;97085.84;;;-1.43;nan
34328;BME280;20588;48.840;10.064;2023-02-28T00:17:57;97087.16;;;-1.49;nan
34328;BME280;20588;48.840;10.064;2023-02-28T00:20:23;97090.03;;;-1.53;nan
34328;BME280;20588;48.840;10.064;2023-02-28T00:22:51;97081.66;;;-1.54;nan
34328;BME280;20588;48.840;10.064;2023-02-28T00:25:23;97077.19;;;-1.50;nan
34328;BME280;20588;48.840;10.064;2023-02-28T00:27:51;97078.09;;;-1.51;nan
34328;BME280;20588;48.840;10.064;2023-02-28T00:30:20;97081.28;;;-1.49;nan
34328;BME280;20588;48.840;10.064;2023-02-28T00:32:47;97064.16;;;-1.35;nan
34328;BME280;20588;48.840;10.064;2023-02-28T00:35:13;97078.72;;;-1.38;nan
34328;BME280;20588;48.840;10.064;2023-02-28T00:37:39;97074.63;;;-1.39;nan
34328;BME280;20588;48.840;10.064;2023-02-28T00:40:06;97066.50;;;-1.43;nan
34328;BME280;20588;48.840;10.064;2023-02-28T00:42:33;97084.03;;;-1.41;nan
34328;BME280;20588;48.840;10.064;2023-02-28T00:44:59;97077.19;;;-1.50;nan
34328;BME280;20588;48.840;10.064;2023-02-28T00:47:26;97077.31;;;-1.52;nan
34328;BME280;20588;48.840;10.064;2023-02-28T00:49:52;97078.44;;;-1.56;nan
34328;BME280;20588;48.840;10.064;2023-02-28T00:52:18;97076.94;;;-1.47;nan
34328;BME280;20588;48.840;10.064;2023-02-28T00:54:44;97076.81;;;-1.46;nan
34328;BME280;20588;48.840;10.064;2023-02-28T00:57:10;97079.22;;;-1.44;nan
34328;BME280;20588;48.840;10.064;2023-02-28T00:59:36;97073.59;;;-1.48;nan
34328;BME280;20588;48.840;10.064;2023-02-28T01:02:02;97075.56;;;-1.51;nan
34328;BME280;20588;48.840;10.064;2023-02-28T01:04:28;97076.50;;;-1.52;nan
34328;BME280;20588;48.840;10.064;2023-02-28T01:06:54;97065.84;;;-1.56;nan
34328;BME280;20588;48.840;10.064;2023-02-28T01:09:20;97070.84;;;-1.65;nan
34328;BME280;20588;48.840;10.064;2023-02-28T01:11:46;97068.59;;;-1.59;nan
34328;BME280;20588;48.840;10.064;2023-02-28T01:14:15;97067.59;;;-1.56;nan
34328;BME280;20588;48.840;10.064;2023-02-28T01:16:42;97066.91;;;-1.58;nan
34328;BME280;20588;48.840;10.064;2023-02-28T01:19:08;97065.06;;;-1.56;nan
34328;BME280;20588;48.840;10.064;2023-02-28T01:21:35;97069.19;;;-1.55;nan
34328;BME280;20588;48.840;10.064;2023-02-28T01:24:02;97071.75;;;-1.66;nan
34328;BME280;20588;48.840;10.064;2023-02-28T01:26:28;97066.22;;;-1.60;nan
34328;BME280;20588;48.840;10.064;2023-02-28T01:28:54;97069.19;;;-1.55;nan
34328;BME280;20588;48.840;10.064;2023-02-28T01:31:21;97071.25;;;-1.60;nan
34328;BME280;20588;48.840;10.064;2023-02-28T01:33:48;97071.38;;;-1.62;nan
34328;BME280;20588;48.840;10.064;2023-02-28T01:36:17;97067.50;;;-1.66;nan
34328;BME280;20588;48.840;10.064;2023-02-28T01:38:44;97068.34;;;-1.76;nan
34328;BME280;20588;48.840;10.064;2023-02-28T01:41:19;97062.94;;;-1.72;nan
34328;BME280;20588;48.840;10.064;2023-02-28T01:46:13;97064.41;;;-1.69;nan
34328;BME280;20588;48.840;10.064;2023-02-28T01:48:44;97067.63;;;-1.67;nan
34328;BME280;20588;48.840;10.064;2023-02-28T01:51:20;97066.53;;;-1.74;nan
34328;BME280;20588;48.840;10.064;2023-02-28T01:53:58;97060.31;;;-1.70;nan
34328;BME280;20588;48.840;10.064;2023-02-28T01:56:29;97061.03;;;-1.79;nan
34328;BME280;20588;48.840;10.064;2023-02-28T01:58:56;97063.75;;;-1.71;nan
34328;BME280;20588;48.840;10.064;2023-02-28T02:01:24;97050.69;;;-1.76;nan
34328;BME280;20588;48.840;10.064;2023-02-28T02:03:54;97047.97;;;-1.85;nan
34328;BME280;20588;48.840;10.064;2023-02-28T02:06:23;97048.19;;;-1.76;nan
34328;BME280;20588;48.840;10.064;2023-02-28T02:08:50;97040.97;;;-1.81;nan
34328;BME280;20588;48.840;10.064;2023-02-28T02:11:19;97044.72;;;-1.75;nan
34328;BME280;20588;48.840;10.064;2023-02-28T02:16:44;97047.56;;;-1.90;nan
34328;BME280;20588;48.840;10.064;2023-02-28T02:22:16;97046.00;;;-2.02;nan
34328;BME280;20588;48.840;10.064;2023-02-28T02:25:06;97040.38;;;-2.05;nan
34328;BME280;20588;48.840;10.064;2023-02-28T02:30:43;97046.34;;;-2.06;nan
34328;BME280;20588;48.840;10.064;2023-02-28T02:33:35;97042.31;;;-1.98;nan
34328;BME280;20588;48.840;10.064;2023-02-28T02:36:23;97033.41;;;-2.02;nan
34328;BME280;20588;48.840;10.064;2023-02-28T02:39:06;97040.03;;;-2.01;nan
34328;BME280;20588;48.840;10.064;2023-02-28T02:41:54;97042.09;;;-2.06;nan
34328;BME280;20588;48.840;10.064;2023-02-28T02:44:36;97047.72;;;-2.02;nan
34328;BME280;20588;48.840;10.064;2023-02-28T02:47:10;97043.34;;;-2.00;nan
34328;BME280;20588;48.840;10.064;2023-02-28T02:49:42;97044.34;;;-1.92;nan
34328;BME280;20588;48.840;10.064;2023-02-28T02:52:10;97042.78;;;-2.04;nan
34328;BME280;20588;48.840;10.064;2023-02-28T02:54:41;97048.75;;;-2.05;nan
34328;BME280;20588;48.840;10.064;2023-02-28T02:57:18;97043.47;;;-2.02;nan
34328;BME280;20588;48.840;10.064;2023-02-28T02:59:45;97041.38;;;-1.97;nan
34328;BME280;20588;48.840;10.064;2023-02-28T03:02:14;97041.25;;;-1.95;nan
34328;BME280;20588;48.840;10.064;2023-02-28T03:04:46;97040.25;;;-1.93;nan
34328;BME280;20588;48.840;10.064;2023-02-28T03:07:14;97040.47;;;-1.96;nan
34328;BME280;20588;48.840;10.064;2023-02-28T03:09:40;97046.41;;;-1.97;nan
34328;BME280;20588;48.840;10.064;2023-02-28T03:12:11;97030.31;;;-1.85;nan
34328;BME280;20588;48.840;10.064;2023-02-28T03:18:01;97048.47;;;-1.91;nan
34328;BME280;20588;48.840;10.064;2023-02-28T03:20:35;97039.06;;;-1.89;nan
34328;BME280;20588;48.840;10.064;2023-02-28T03:23:17;97040.03;;;-2.01;nan
34328;BME280;20588;48.840;10.064;2023-02-28T03:26:02;97036.56;;;-2.00;nan
34328;BME280;20588;48.840;10.064;2023-02-28T03:31:33;97031.25;;;-1.86;nan
34328;BME280;20588;48.840;10.064;2023-02-28T03:34:19;97041.38;;;-1.97;nan
34328;BME280;20588;48.840;10.064;2023-02-28T03:36:53;97030.69;;;-1.89;nan
34328;BME280;20588;48.840;10.064;2023-02-28T03:39:27;97039.28;;;-1.80;nan
34328;BME280;20588;48.840;10.064;2023-02-28T03:42:31;97038.53;;;-1.71;nan
34328;BME280;20588;48.840;10.064;2023-02-28T03:45:16;97044.59;;;-1.74;nan
34328;BME280;20588;48.840;10.064;2023-02-28T03:47:46;97049.22;;;-1.79;nan
34328;BME280;20588;48.840;10.064;2023-02-28T03:50:18;97040.25;;;-1.72;nan
34328;BME280;20588;48.840;10.064;2023-02-28T03:52:51;97043.38;;;-1.59;nan
34328;BME280;20588;48.840;10.064;2023-02-28T03:55:21;97041.31;;;-1.74;nan
34328;BME280;20588;48.840;10.064;2023-02-28T03:58:07;97051.19;;;-1.83;nan
34328;BME280;20588;48.840;10.064;2023-02-28T04:00:44;97035.38;;;-1.85;nan
34328;BME280;20588;48.840;10.064;2023-02-28T04:03:12;97037.03;;;-1.74;nan
34328;BME280;20588;48.840;10.064;2023-02-28T04:05:50;97056.00;;;-1.79;nan
34328;BME280;20588;48.840;10.064;2023-02-28T04:08:16;97050.94;;;-1.79;nan
34328;BME280;20588;48.840;10.064;2023-02-28T04:10:43;97059.72;;;-1.74;nan
34328;BME280;20588;48.840;10.064;2023-02-28T04:13:11;97059.56;;;-1.82;nan
34328;BME280;20588;48.840;10.064;2023-02-28T04:15:37;97051.31;;;-1.84;nan
34328;BME280;20588;48.840;10.064;2023-02-28T04:18:03;97062.19;;;-1.83;nan
34328;BME280;20588;48.840;10.064;2023-02-28T04:20:29;97053.47;;;-1.79;nan
34328;BME280;20588;48.840;10.064;2023-02-28T04:22:55;97063.06;;;-1.73;nan
34328;BME280;20588;48.840;10.064;2023-02-28T04:25:21;97059.84;;;-1.75;nan
34328;BME280;20588;48.840;10.064;2023-02-28T04:27:47;97058.50;;;-1.79;nan
34328;BME280;20588;48.840;10.064;2023-02-28T04:30:13;97050.59;;;-1.75;nan
34328;BME280;20588;48.840;10.064;2023-02-28T04:32:39;97059.38;;;-1.69;nan
34328;BME280;20588;48.840;10.064;2023-02-28T04:35:05;97069.47;;;-1.69;nan
34328;BME280;20588;48.840;10.064;2023-02-28T04:37:32;97065.03;;;-1.77;nan
34328;BME280;20588;48.840;10.064;2023-02-28T04:40:00;97052.28;;;-1.75;nan
34328;BME280;20588;48.840;10.064;2023-02-28T04:42:27;97059.84;;;-1.75;nan
34328;BME280;20588;48.840;10.064;2023-02-28T04:44:53;97061.53;;;-1.65;nan
34328;BME280;20588;48.840;10.064;2023-02-28T04:47:19;97073.84;;;-1.71;nan
34328;BME280;20588;48.840;10.064;2023-02-28T04:49:45;97067.88;;;-1.70;nan
34328;BME280;20588;48.840;10.064;2023-02-28T04:52:11;97067.00;;;-1.80;nan
34328;BME280;20588;48.840;10.064;2023-02-28T04:54:39;97067.78;;;-1.80;nan
34328;BME280;20588;48.840;10.064;2023-02-28T04:57:05;97063.22;;;-1.86;nan
34328;BME280;20588;48.840;10.064;2023-02-28T04:59:31;97072.59;;;-1.77;nan
34328;BME280;20588;48.840;10.064;2023-02-28T05:01:58;97060.81;;;-1.88;nan
34328;BME280;20588;48.840;10.064;2023-02-28T05:04:24;97071.47;;;-1.84;nan
34328;BME280;20588;48.840;10.064;2023-02-28T05:06:50;97072.53;;;-1.87;nan
34328;BME280;20588;48.840;10.064;2023-02-28T05:09:16;97070.66;;;-1.85;nan
34328;BME280;20588;48.840;10.064;2023-02-28T05:11:42;97069.41;;;-1.79;nan
34328;BME280;20588;48.840;10.064;2023-02-28T05:14:13;97076.16;;;-1.79;nan
34328;BME280;20588;48.840;10.064;2023-02-28T05:16:40;97068.00;;;-1.72;nan
34328;BME280;20588;48.840;10.064;2023-02-28T05:19:06;97070.88;;;-1.76;nan
34328;BME280;20588;48.840;10.064;2023-02-28T05:21:53;97061.97;;;-1.80;nan
34328;BME280;20588;48.840;10.064;2023-02-28T05:24:19;97065.97;;;-1.89;nan
34328;BME280;20588;48.840;10.064;2023-02-28T05:26:49;97071.47;;;-1.84;nan
34328;BME280;20588;48.840;10.064;2023-02-28T05:29:17;97075.34;;;-1.80;nan
34328;BME280;20588;48.840;10.064;2023-02-28T05:31:43;97067.03;;;-1.92;nan
34328;BME280;20588;48.840;10.064;2023-02-28T05:34:09;97063.53;;;-2.00;nan
34328;BME280;20588;48.840;10.064;2023-02-28T05:36:38;97067.28;;;-1.95;nan
34328;BME280;20588;48.840;10.064;2023-02-28T05:39:06;97067.47;;;-1.87;nan
34328;BME280;20588;48.840;10.064;2023-02-28T05:41:33;97071.25;;;-1.92;nan
34328;BME280;20588;48.840;10.064;2023-02-28T05:43:59;97068.75;;;-1.92;nan
34328;BME280;20588;48.840;10.064;2023-02-28T05:46:26;97072.59;;;-1.77;nan
34328;BME280;20588;48.840;10.064;2023-02-28T05:48:52;97068.09;;;-1.94;nan
34328;BME280;20588;48.840;10.064;2023-02-28T05:51:18;97064.13;;;-2.08;nan
34328;BME280;20588;48.840;10.064;2023-02-28T05:53:44;97071.63;;;-1.97;nan
34328;BME280;20588;48.840;10.064;2023-02-28T05:56:10;97070.50;;;-2.04;nan
34328;BME280;20588;48.840;10.064;2023-02-28T05:58:36;97074.03;;;-1.95;nan
34328;BME280;20588;48.840;10.064;2023-02-28T06:03:46;97071.63;;;-1.97;nan
34328;BME280;20588;48.840;10.064;2023-02-28T06:06:12;97074.13;;;-1.86;nan
34328;BME280;20588;48.840;10.064;2023-02-28T06:08:38;97078.09;;;-1.83;nan
34328;BME280;20588;48.840;10.064;2023-02-28T06:11:04;97076.75;;;-1.87;nan
34328;BME280;20588;48.840;10.064;2023-02-28T06:13:32;97082.75;;;-1.99;nan
34328;BME280;20588;48.840;10.064;2023-02-28T06:16:01;97081.34;;;-1.92;nan
34328;BME280;20588;48.840;10.064;2023-02-28T06:18:27;97092.69;;;-1.87;nan
34328;BME280;20588;48.840;10.064;2023-02-28T06:20:54;97092.94;;;-1.90;nan
34328;BME280;20588;48.840;10.064;2023-02-28T06:23:20;97094.78;;;-1.71;nan
34328;BME280;20588;48.840;10.064;2023-02-28T06:25:47;97097.91;;;-1.78;nan
34328;BME280;20588;48.840;10.064;2023-02-28T06:28:13;97095.63;;;-1.82;nan
34328;BME280;20588;48.840;10.064;2023-02-28T06:30:39;97089.22;;;-1.74;nan
34328;BME280;20588;48.840;10.064;2023-02-28T06:33:05;97099.22;;;-1.63;nan
34328;BME280;20588;48.840;10.064;2023-02-28T06:35:31;97109.91;;;-1.71;nan
34328;BME280;20588;48.840;10.064;2023-02-28T06:37:58;97101.34;;;-1.68;nan
34328;BME280;20588;48.840;10.064;2023-02-28T06:40:24;97101.34;;;-1.68;nan
34328;BME280;20588;48.840;10.064;2023-02-28T06:42:50;97106.03;;;-1.64;nan
34328;BME280;20588;48.840;10.064;2023-02-28T06:45:16;97105.25;;;-1.75;nan
34328;BME280;20588;48.840;10.064;2023-02-28T06:47:42;97106.19;;;-1.56;nan
34328;BME280;20588;48.840;10.064;2023-02-28T06:50:11;97107.50;;;-1.61;nan
34328;BME280;20588;48.840;10.064;2023-02-28T06:52:38;97110.50;;;-1.47;nan
34328;BME280;20588;48.840;10.064;2023-02-28T06:55:06;97101.50;;;-1.29;nan
34328;BME280;20588;48.840;10.064;2023-02-28T06:57:33;97101.31;;;-1.16;nan
34328;BME280;20588;48.840;10.064;2023-02-28T07:00:02;97100.50;;;-0.96;nan
34328;BME280;20588;48.840;10.064;2023-02-28T07:02:29;97107.72;;;-0.92;nan
34328;BME280;20588;48.840;10.064;2023-02-28T07:04:55;97109.91;;;-0.98;nan
34328;BME280;20588;48.840;10.064;2023-02-28T07:07:21;97112.81;;;-0.82;nan
34328;BME280;20588;48.840;10.064;2023-02-28T07:09:47;97107.59;;;-0.60;nan
34328;BME280;20588;48.840;10.064;2023-02-28T07:12:13;97116.00;;;-0.80;nan
34328;BME280;20588;48.840;10.064;2023-02-28T07:14:39;97125.38;;;-0.71;nan
34328;BME280;20588;48.840;10.064;2023-02-28T07:17:10;97120.66;;;-0.55;nan
34328;BME280;20588;48.840;10.064;2023-02-28T07:19:38;97123.59;;;-0.50;nan
34328;BME280;20588;48.840;10.064;2023-02-28T07:22:04;97126.97;;;-0.70;nan
34328;BME280;20588;48.840;10.064;2023-02-28T07:24:30;97144.16;;;-1.05;nan
34328;BME280;20588;48.840;10.064;2023-02-28T07:26:57;97134.78;;;-0.94;nan
34328;BME280;20588;48.840;10.064;2023-02-28T07:29:23;97140.84;;;-0.85;nan
34328;BME280;20588;48.840;10.064;2023-02-28T07:31:49;97149.94;;;-0.73;nan
34328;BME280;20588;48.840;10.064;2023-02-28T07:34:19;97137.31;;;-0.43;nan
34328;BME280;20588;48.840;10.064;2023-02-28T07:36:45;97143.31;;;-0.44;nan
34328;BME280;20588;48.840;10.064;2023-02-28T07:39:11;97144.56;;;-0.29;nan
34328;BME280;20588;48.840;10.064;2023-02-28T07:41:37;97131.63;;;0.04;nan
34328;BME280;20588;48.840;10.064;2023-02-28T07:44:10;97140.09;;;-0.16;nan
34328;BME280;20588;48.840;10.064;2023-02-28T07:46:36;97141.38;;;0.18;nan
34328;BME280;20588;48.840;10.064;2023-02-28T07:49:03;97139.00;;;0.55;nan
34328;BME280;20588;48.840;10.064;2023-02-28T07:51:30;97144.63;;;0.68;nan
34328;BME280;20588;48.840;10.064;2023-02-28T07:53:56;97144.75;;;0.95;nan
34328;BME280;20588;48.840;10.064;2023-02-28T07:56:22;97145.91;;;1.10;nan
34328;BME280;20588;48.840;10.064;2023-02-28T07:58:49;97136.63;;;1.47;nan
34328;BME280;20588;48.840;10.064;2023-02-28T08:01:15;97135.16;;;2.08;nan
34328;BME280;20588;48.840;10.064;2023-02-28T08:03:41;97141.47;;;2.22;nan
34328;BME280;20588;48.840;10.064;2023-02-28T08:06:09;97143.78;;;2.42;nan
34328;BME280;20588;48.840;10.064;2023-02-28T08:08:40;97137.78;;;2.86;nan
34328;BME280;20588;48.840;10.064;2023-02-28T08:11:06;97146.03;;;3.49;nan
34328;BME280;20588;48.840;10.064;2023-02-28T08:13:32;97145.66;;;3.44;nan
34328;BME280;20588;48.840;10.064;2023-02-28T08:16:00;97145.94;;;3.33;nan
34328;BME280;20588;48.840;10.064;2023-02-28T08:18:26;97141.59;;;3.51;nan
34328;BME280;20588;48.840;10.064;2023-02-28T08:20:52;97141.63;;;3.93;nan
34328;BME280;20588;48.840;10.064;2023-02-28T08:23:18;97132.41;;;3.92;nan
34328;BME280;20588;48.840;10.064;2023-02-28T08:25:44;97139.53;;;4.38;nan
34328;BME280;20588;48.840;10.064;2023-02-28T08:28:10;97142.66;;;4.81;nan
34328;BME280;20588;48.840;10.064;2023-02-28T08:30:37;97139.59;;;5.42;nan
34328;BME280;20588;48.840;10.064;2023-02-28T08:33:03;97137.59;;;5.68;nan
34328;BME280;20588;48.840;10.064;2023-02-28T08:35:29;97129.84;;;7.21;nan
34328;BME280;20588;48.840;10.064;2023-02-28T08:37:55;97122.69;;;7.54;nan
34328;BME280;20588;48.840;10.064;2023-02-28T08:40:21;97119.94;;;8.49;nan
34328;BME280;20588;48.840;10.064;2023-02-28T08:42:48;97120.19;;;8.33;nan
34328;BME280;20588;48.840;10.064;2023-02-28T08:45:15;97124.00;;;7.93;nan
34328;BME280;20588;48.840;10.064;2023-02-28T08:47:41;97133.09;;;7.96;nan
34328;BME280;20588;48.840;10.064;2023-02-28T08:50:08;97132.03;;;8.19;nan
34328;BME280;20588;48.840;10.064;2023-02-28T08:52:34;97144.56;;;7.04;nan
34328;BME280;20588;48.840;10.064;2023-02-28T08:55:00;97145.84;;;6.86;nan
34328;BME280;20588;48.840;10.064;2023-02-28T08:57:26;97139.44;;;7.56;nan
34328;BME280;20588;48.840;10.064;2023-02-28T08:59:53;97140.34;;;7.92;nan
34328;BME280;20588;48.840;10.064;2023-02-28T09:02:19;97130.19;;;7.99;nan
34328;BME280;20588;48.840;10.064;2023-02-28T09:04:45;97137.69;;;8.00;nan
34328;BME280;20588;48.840;10.064;2023-02-28T09:07:12;97143.22;;;7.46;nan
34328;BME280;20588;48.840;10.064;2023-02-28T09:09:38;97150.50;;;7.42;nan
34328;BME280;20588;48.840;10.064;2023-02-28T09:12:28;97149.97;;;6.34;nan
34328;BME280;20588;48.840;10.064;2023-02-28T09:14:57;97146.34;;;5.82;nan
34328;BME280;20588;48.840;10.064;2023-02-28T09:17:23;97145.25;;;6.76;nan
34328;BME280;20588;48.840;10.064;2023-02-28T09:19:49;97144.63;;;6.21;nan
34328;BME280;20588;48.840;10.064;2023-02-28T09:22:16;97153.69;;;6.31;nan
34328;BME280;20588;48.840;10.064;2023-02-28T09:24:42;97153.38;;;5.72;nan
34328;BME280;20588;48.840;10.064;2023-02-28T09:27:08;97149.38;;;5.85;nan
34328;BME280;20588;48.840;10.064;2023-02-28T09:29:34;97165.19;;;5.73;nan
34328;BME280;20588;48.840;10.064;2023-02-28T09:32:01;97155.31;;;5.86;nan
34328;BME280;20588;48.840;10.064;2023-02-28T09:34:28;97154.97;;;5.89;nan
34328;BME280;20588;48.840;10.064;2023-02-28T09:36:56;97157.44;;;4.94;nan
34328;BME280;20588;48.840;10.064;2023-02-28T09:39:23;97164.28;;;4.04;nan
34328;BME280;20588;48.840;10.064;2023-02-28T09:41:52;97159.03;;;4.79;nan
34328;BME280;20588;48.840;10.064;2023-02-28T09:44:35;97160.81;;;4.13;nan
34328;BME280;20588;48.840;10.064;2023-02-28T09:47:53;97157.09;;;4.49;nan
34328;BME280;20588;48.840;10.064;2023-02-28T09:49:55;97152.03;;;4.65;nan
34328;BME280;20588;48.840;10.064;2023-02-28T09:52:29;97154.53;;;5.69;nan
34328;BME280;20588;48.840;10.064;2023-02-28T09:54:59;97152.91;;;6.23;nan
34328;BME280;20588;48.840;10.064;2023-02-28T09:57:33;97146.78;;;8.03;nan
34328;BME280;20588;48.840;10.064;2023-02-28T10:05:23;97152.25;;;8.43;nan
34328;BME280;20588;48.840;10.064;2023-02-28T10:11:00;97170.19;;;7.85;nan
34328;BME280;20588;48.840;10.064;2023-02-28T10:13:34;97160.75;;;8.15;nan
34328;BME280;20588;48.840;10.064;2023-02-28T10:16:19;97172.06;;;7.25;nan
34328;BME280;20588;48.840;10.064;2023-02-28T10:18:51;97158.84;;;8.52;nan
34328;BME280;20588;48.840;10.064;2023-02-28T10:21:24;97171.16;;;7.70;nan
34328;BME280;20588;48.840;10.064;2023-02-28T10:23:56;97177.06;;;7.18;nan
34328;BME280;20588;48.840;10.064;2023-02-28T10:26:27;97170.44;;;6.34;nan
34328;BME280;20588;48.840;10.064;2023-02-28T10:28:54;97169.56;;;6.11;nan
34328;BME280;20588;48.840;10.064;2023-02-28T10:31:21;97176.81;;;5.99;nan
34328;BME280;20588;48.840;10.064;2023-02-28T10:33:48;97170.44;;;5.79;nan
34328;BME280;20588;48.840;10.064;2023-02-28T10:36:19;97165.38;;;6.48;nan
34328;BME280;20588;48.840;10.064;2023-02-28T10:38:47;97163.28;;;7.42;nan
34328;BME280;20588;48.840;10.064;2023-02-28T10:41:30;97161.34;;;7.44;nan
34328;BME280;20588;48.840;10.064;2023-02-28T10:44:16;97163.38;;;7.92;nan
34328;BME280;20588;48.840;10.064;2023-02-28T10:46:43;97166.78;;;7.78;nan
34328;BME280;20588;48.840;10.064;2023-02-28T10:49:22;97167.88;;;7.47;nan
34328;BME280;20588;48.840;10.064;2023-02-28T10:51:52;97159.41;;;8.04;nan
34328;BME280;20588;48.840;10.064;2023-02-28T10:54:31;97164.16;;;8.51;nan
34328;BME280;20588;48.840;10.064;2023-02-28T10:57:17;97159.88;;;7.64;nan
34328;BME280;20588;48.840;10.064;2023-02-28T10:59:44;97148.75;;;7.57;nan
34328;BME280;20588;48.840;10.064;2023-02-28T11:02:30;97169.41;;;7.33;nan
34328;BME280;20588;48.840;10.064;2023-02-28T11:04:57;97162.84;;;7.97;nan
34328;BME280;20588;48.840;10.064;2023-02-28T11:07:24;97157.91;;;7.95;nan
34328;BME280;20588;48.840;10.064;2023-02-28T11:09:52;97164.63;;;7.53;nan
34328;BME280;20588;48.840;10.064;2023-02-28T11:12:29;97163.09;;;6.31;nan
34328;BME280;20588;48.840;10.064;2023-02-28T11:17:43;97150.69;;;8.13;nan
34328;BME280;20588;48.840;10.064;2023-02-28T11:20:21;97147.50;;;8.11;nan
34328;BME280;20588;48.840;10.064;2023-02-28T11:22:48;97151.28;;;8.15;nan
34328;BME280;20588;48.840;10.064;2023-02-28T11:25:33;97143.94;;;8.62;nan
34328;BME280;20588;48.840;10.064;2023-02-28T11:28:03;97148.88;;;8.99;nan
34328;BME280;20588;48.840;10.064;2023-02-28T11:30:40;97149.66;;;9.00;nan
34328;BME280;20588;48.840;10.064;2023-02-28T11:33:27;97150.19;;;9.16;nan
34328;BME280;20588;48.840;10.064;2023-02-28T11:35:58;97141.28;;;8.91;nan
34328;BME280;20588;48.840;10.064;2023-02-28T11:38:26;97141.75;;;9.01;nan
34328;BME280;20588;48.840;10.064;2023-02-28T11:46:27;97128.09;;;10.11;nan
34328;BME280;20588;48.840;10.064;2023-02-28T11:52:05;97133.22;;;10.58;nan
34328;BME280;20588;48.840;10.064;2023-02-28T11:55:03;97138.94;;;10.60;nan
34328;BME280;20588;48.840;10.064;2023-02-28T11:57:52;97137.91;;;10.42;nan
34328;BME280;20588;48.840;10.064;2023-02-28T12:21:12;97140.06;;;9.64;nan
34328;BME280;20588;48.840;10.064;2023-02-28T12:26:44;97136.69;;;10.38;nan
34328;BME280;20588;48.840;10.064;2023-02-28T12:31:49;97136.88;;;8.85;nan
34328;BME280;20588;48.840;10.064;2023-02-28T12:34:42;97140.19;;;9.00;nan
34328;BME280;20588;48.840;10.064;2023-02-28T12:37:15;97133.69;;;8.62;nan
34328;BME280;20588;48.840;10.064;2023-02-28T12:39:51;97132.66;;;8.57;nan
34328;BME280;20588;48.840;10.064;2023-02-28T12:42:34;97127.16;;;8.24;nan
34328;BME280;20588;48.840;10.064;2023-02-28T12:45:39;97133.78;;;8.33;nan
34328;BME280;20588;48.840;10.064;2023-02-28T12:48:17;97133.78;;;8.04;nan
34328;BME280;20588;48.840;10.064;2023-02-28T12:50:45;97127.94;;;8.60;nan
34328;BME280;20588;48.840;10.064;2023-02-28T12:53:42;97126.63;;;8.64;nan
34328;BME280;20588;48.840;10.064;2023-02-28T12:56:43;97120.63;;;8.78;nan
34328;BME280;20588;48.840;10.064;2023-02-28T12:59:25;97111.78;;;8.81;nan
34328;BME280;20588;48.840;10.064;2023-02-28T13:02:33;97108.88;;;9.39;nan
34328;BME280;20588;48.840;10.064;2023-02-28T13:05:11;97101.66;;;9.90;nan
34328;BME280;20588;48.840;10.064;2023-02-28T13:10:47;97115.06;;;8.96;nan
34328;BME280;20588;48.840;10.064;2023-02-28T13:13:24;97103.75;;;8.13;nan
34328;BME280;20588;48.840;10.064;2023-02-28T13:16:11;97111.63;;;7.97;nan
34328;BME280;20588;48.840;10.064;2023-02-28T13:18:45;97113.13;;;7.91;nan
34328;BME280;20588;48.840;10.064;2023-02-28T13:21:29;97111.81;;;7.52;nan
34328;BME280;20588;48.840;10.064;2023-02-28T13:34:38;97104.59;;;7.55;nan
34328;BME280;20588;48.840;10.064;2023-02-28T13:40:00;97109.09;;;7.68;nan
34328;BME280;20588;48.840;10.064;2023-02-28T13:42:46;97107.66;;;7.94;nan
34328;BME280;20588;48.840;10.064;2023-02-28T13:47:44;97111.25;;;8.00;nan
34328;BME280;20588;48.840;10.064;2023-02-28T13:50:31;97111.97;;;7.50;nan
34328;BME280;20588;48.840;10.064;2023-02-28T14:06:39;97108.81;;;5.98;nan
34328;BME280;20588;48.840;10.064;2023-02-28T14:09:25;97110.94;;;6.17;nan
34328;BME280;20588;48.840;10.064;2023-02-28T14:11:53;97109.78;;;6.28;nan
34328;BME280;20588;48.840;10.064;2023-02-28T14:17:02;97109.56;;;6.37;nan
34328;BME280;20588;48.840;10.064;2023-02-28T14:19:31;97103.66;;;6.37;nan
34328;BME280;20588;48.840;10.064;2023-02-28T14:25:37;97094.22;;;6.37;nan
34328;BME280;20588;48.840;10.064;2023-02-28T14:28:24;97109.91;;;6.57;nan
34328;BME280;20588;48.840;10.064;2023-02-28T14:33:33;97113.31;;;6.72;nan
34328;BME280;20588;48.840;10.064;2023-02-28T14:38:48;97105.03;;;6.70;nan
34328;BME280;20588;48.840;10.064;2023-02-28T14:41:20;97112.47;;;6.57;nan
34328;BME280;20588;48.840;10.064;2023-02-28T14:43:56;97110.69;;;6.35;nan
34328;BME280;20588;48.840;10.064;2023-02-28T14:46:25;97121.00;;;6.19;nan
34328;BME280;20588;48.840;10.064;2023-02-28T14:48:52;97129.84;;;6.08;nan
34328;BME280;20588;48.840;10.064;2023-02-28T14:51:20;97125.38;;;6.10;nan
34328;BME280;20588;48.840;10.064;2023-02-28T14:53:50;97126.56;;;5.92;nan
34328;BME280;20588;48.840;10.064;2023-02-28T14:56:35;97124.88;;;6.07;nan
34328;BME280;20588;48.840;10.064;2023-02-28T14:59:03;97121.63;;;5.82;nan
34328;BME280;20588;48.840;10.064;2023-02-28T15:01:31;97129.94;;;5.68;nan
34328;BME280;20588;48.840;10.064;2023-02-28T15:04:05;97126.03;;;5.33;nan
34328;BME280;20588;48.840;10.064;2023-02-28T15:06:32;97132.91;;;5.25;nan
34328;BME280;20588;48.840;10.064;2023-02-28T15:09:15;97128.47;;;5.27;nan
34328;BME280;20588;48.840;10.064;2023-02-28T15:11:44;97127.03;;;5.08;nan
34328;BME280;20588;48.840;10.064;2023-02-28T15:14:19;97126.06;;;5.25;nan
34328;BME280;20588;48.840;10.064;2023-02-28T15:16:55;97131.63;;;5.29;nan
34328;BME280;20588;48.840;10.064;2023-02-28T15:19:31;97130.19;;;5.34;nan
34328;BME280;20588;48.840;10.064;2023-02-28T15:22:13;97141.97;;;5.35;nan
34328;BME280;20588;48.840;10.064;2023-02-28T15:24:45;97132.75;;;5.10;nan